Capitol Logistics 2337

Operating for ATN



KIAH
George Bush Intcntl/Houston Airport
Houston, Texas
KRFD
Chicago/Rockford International Airport
Rockford, Illinois

Activity Log

Date Flight Route Aircraft Duration
No Flights Yet

Route Details

Aircraft Information
Group: North America Fleet
Types: B738,B752,B762,B763
Route Data
Demand: V
Distance: 794nm
Duration: 1h 59m
Recm'd Route: STYCK7 DOLEY FUZ LIT J101 STL BDF PLL
Origin Wx: KIAH 272153Z 31008KT 10SM SCT065 34/17 A2992 RMK AO2 SLP131 T03390172
Dest. Wx: KRFD 272154Z 35006KT 10SM FEW031 OVC041 17/11 A2990 RMK AO2 SLP122 T01720111
Notes:

Financial History
Total Freight: 0lbs
Average Load: 0lbs/flt
Fuel Used: 0lbs
Avg. Fuel Used: 0lbs/flt
Fuel Expense: $0
Avg. Fuel Expense: $0
Avg. Fuel Cost: $0/lbs
Total Gross Income: $0
Pilot Pay: $0
Total Expenses: $0
Total Revenue: $0
Average Revenue: $0